createdAt,value
2022-09-13T00:01:37.822Z,11.67
2022-09-13T00:04:24.454Z,11.60
2022-09-13T00:07:10.595Z,11.56
2022-09-13T00:09:56.966Z,11.56
2022-09-13T00:12:43.414Z,11.71
2022-09-13T00:15:30.229Z,11.53
2022-09-13T00:18:18.711Z,11.66
2022-09-13T00:21:08.666Z,11.43
2022-09-13T00:23:55.660Z,11.52
2022-09-13T00:26:42.233Z,11.34
2022-09-13T00:29:28.584Z,11.51
2022-09-13T00:32:15.010Z,11.41
2022-09-13T00:35:03.247Z,11.34
2022-09-13T00:37:50.167Z,11.03
2022-09-13T00:40:39.667Z,11.35
2022-09-13T00:43:52.329Z,11.49
2022-09-13T00:46:50.241Z,11.36
2022-09-13T00:49:40.342Z,11.47
2022-09-13T00:52:31.082Z,11.46
2022-09-13T00:55:23.990Z,11.40
2022-09-13T00:58:15.950Z,11.26
2022-09-13T01:01:05.249Z,11.01
2022-09-13T01:03:51.960Z,11.06
2022-09-13T01:06:40.205Z,10.99
2022-09-13T01:09:28.319Z,11.12
2022-09-13T01:12:34.520Z,11.30
2022-09-13T01:15:20.952Z,11.15
2022-09-13T01:18:09.021Z,11.10
2022-09-13T01:21:33.053Z,11.28
2022-09-13T01:24:34.721Z,11.24
2022-09-13T01:27:34.704Z,11.20
2022-09-13T01:30:23.958Z,11.21
2022-09-13T01:33:28.922Z,11.30
2022-09-13T01:36:18.346Z,11.31
2022-09-13T01:39:07.964Z,11.16
2022-09-13T01:42:32.438Z,11.04
2022-09-13T01:45:23.040Z,10.78
2022-09-13T01:48:21.495Z,10.94
2022-09-13T01:51:21.624Z,10.91
2022-09-13T01:54:29.241Z,10.66
2022-09-13T01:57:15.557Z,10.79
2022-09-13T02:00:10.038Z,10.58
2022-09-13T02:03:12.917Z,10.62
2022-09-13T02:06:10.614Z,10.66
2022-09-13T02:09:01.824Z,10.60
2022-09-13T02:11:54.729Z,10.71
2022-09-13T02:14:44.271Z,10.78
2022-09-13T02:17:37.336Z,10.69
2022-09-13T02:20:31.517Z,10.66
2022-09-13T02:23:30.883Z,10.61
2022-09-13T02:26:20.283Z,10.62
2022-09-13T02:29:11.615Z,10.79
2022-09-13T02:32:16.648Z,10.63
2022-09-13T02:35:10.056Z,10.79
2022-09-13T02:38:18.751Z,10.64
2022-09-13T02:41:30.001Z,10.76
2022-09-13T02:44:31.883Z,10.60
2022-09-13T02:48:10.261Z,10.74
2022-09-13T02:51:26.065Z,10.66
2022-09-13T02:54:30.747Z,10.51
2022-09-13T02:57:25.576Z,10.64
2022-09-13T03:00:12.030Z,10.43
2022-09-13T03:03:02.594Z,10.40
2022-09-13T03:05:48.817Z,10.55
2022-09-13T03:08:36.467Z,10.56
2022-09-13T03:11:41.610Z,10.51
2022-09-13T03:14:30.666Z,10.63
2022-09-13T03:17:42.606Z,10.50
2022-09-13T03:20:45.440Z,10.53
2022-09-13T03:23:55.869Z,10.61
2022-09-13T03:26:45.309Z,10.61
2022-09-13T03:29:56.371Z,10.53
2022-09-13T03:32:48.945Z,10.50
2022-09-13T03:35:54.642Z,10.34
2022-09-13T03:39:33.950Z,10.50
2022-09-13T03:42:36.204Z,10.32
2022-09-13T03:45:31.260Z,10.62
2022-09-13T03:48:18.865Z,10.56
2022-09-13T03:51:06.499Z,10.50
2022-09-13T03:53:58.152Z,10.38
2022-09-13T03:57:04.594Z,10.43
2022-09-13T03:59:53.756Z,10.22
2022-09-13T04:02:40.242Z,10.24
2022-09-13T04:05:26.933Z,10.10
2022-09-13T04:08:13.029Z,10.16
2022-09-13T04:10:59.593Z,10.07
2022-09-13T04:13:46.081Z,10.26
2022-09-13T04:16:32.505Z,10.10
2022-09-13T04:19:19.351Z,10.13
2022-09-13T04:22:05.773Z,10.23
2022-09-13T04:24:52.861Z,10.28
2022-09-13T04:27:39.223Z,10.27
2022-09-13T04:30:28.111Z,10.46
2022-09-13T04:33:14.962Z,10.51
2022-09-13T04:36:01.476Z,10.45
2022-09-13T04:38:48.090Z,10.58
2022-09-13T04:41:34.669Z,10.74
2022-09-13T04:44:21.617Z,10.88
2022-09-13T04:47:08.852Z,10.81
2022-09-13T04:49:55.109Z,10.74
2022-09-13T04:52:41.315Z,10.86
2022-09-13T04:55:27.551Z,10.85
2022-09-13T04:58:14.154Z,10.96
2022-09-13T05:01:05.786Z,10.95
2022-09-13T05:03:53.497Z,10.84
2022-09-13T05:06:39.983Z,10.80
2022-09-13T05:09:26.225Z,11.08
2022-09-13T05:12:12.550Z,10.91
2022-09-13T05:14:58.965Z,10.85
2022-09-13T05:17:45.416Z,10.78
2022-09-13T05:20:31.976Z,10.65
2022-09-13T05:23:18.535Z,10.92
2022-09-13T05:26:06.458Z,11.15
2022-09-13T05:28:53.487Z,11.18
2022-09-13T05:31:42.366Z,11.25
2022-09-13T05:34:28.530Z,11.17
2022-09-13T05:37:15.037Z,11.08
2022-09-13T05:40:11.606Z,11.18
2022-09-13T05:42:58.581Z,11.34
2022-09-13T05:45:44.674Z,11.45
2022-09-13T05:48:32.875Z,11.55
2022-09-13T05:51:21.415Z,11.71
2022-09-13T05:54:10.927Z,11.86
2022-09-13T05:56:57.521Z,11.91
2022-09-13T05:59:44.251Z,12.06
2022-09-13T06:02:31.346Z,12.12
2022-09-13T06:05:17.845Z,12.05
2022-09-13T06:08:04.063Z,12.35
2022-09-13T06:10:57.622Z,12.31
2022-09-13T06:13:43.839Z,12.39
2022-09-13T06:16:30.141Z,12.58
2022-09-13T06:19:16.818Z,12.45
2022-09-13T06:22:03.221Z,12.49
2022-09-13T06:24:49.595Z,12.70
2022-09-13T06:27:35.845Z,12.51
2022-09-13T06:30:22.274Z,12.64
2022-09-13T06:33:08.580Z,12.74
2022-09-13T06:35:54.874Z,12.78
2022-09-13T06:38:41.818Z,12.80
2022-09-13T06:41:28.335Z,13.00
2022-09-13T06:44:14.846Z,13.28
2022-09-13T06:47:01.402Z,13.44
2022-09-13T06:49:47.598Z,13.69
2022-09-13T06:52:34.020Z,13.98
2022-09-13T06:55:20.361Z,14.06
2022-09-13T06:58:06.814Z,13.90
2022-09-13T07:00:56.002Z,14.02
2022-09-13T07:03:47.942Z,13.96
2022-09-13T07:06:40.229Z,14.09
2022-09-13T07:09:26.687Z,14.08
2022-09-13T07:12:15.596Z,14.50
2022-09-13T07:15:04.415Z,14.69
2022-09-13T07:17:51.004Z,14.58
2022-09-13T07:20:37.181Z,14.89
2022-09-13T07:23:23.716Z,15.03
2022-09-13T07:26:10.586Z,15.33
2022-09-13T07:29:02.962Z,15.79
2022-09-13T07:31:51.865Z,15.66
2022-09-13T07:34:38.188Z,15.95
2022-09-13T07:37:24.726Z,16.26
2022-09-13T07:40:11.557Z,16.42
2022-09-13T07:42:58.141Z,16.45
2022-09-13T07:45:44.415Z,16.61
2022-09-13T07:48:43.761Z,16.65
2022-09-13T07:51:32.614Z,16.86
2022-09-13T07:54:19.610Z,16.99
2022-09-13T07:57:05.751Z,17.19
2022-09-13T07:59:52.195Z,17.36
2022-09-13T08:02:38.814Z,17.39
2022-09-13T08:05:25.214Z,17.49
2022-09-13T08:08:11.800Z,18.03
2022-09-13T08:10:58.864Z,17.90
2022-09-13T08:13:51.114Z,18.21
2022-09-13T08:16:39.305Z,18.36
2022-09-13T08:19:26.872Z,18.33
2022-09-13T08:22:13.445Z,18.69
2022-09-13T08:24:59.694Z,18.82
2022-09-13T08:27:46.374Z,18.88
2022-09-13T08:30:35.849Z,18.94
2022-09-13T08:33:21.871Z,19.19
2022-09-13T08:36:08.436Z,19.21
2022-09-13T08:39:00.148Z,19.63
2022-09-13T08:41:55.172Z,19.81
2022-09-13T08:44:56.019Z,20.07
2022-09-13T08:47:55.080Z,20.03
2022-09-13T08:50:44.914Z,20.14
2022-09-13T08:53:35.387Z,20.47
2022-09-13T08:56:38.428Z,20.70
2022-09-13T09:00:10.042Z,21.12
2022-09-13T09:03:12.121Z,20.96
2022-09-13T09:05:58.793Z,20.94
2022-09-13T09:08:52.066Z,21.13
2022-09-13T09:12:03.174Z,21.54
2022-09-13T09:15:00.958Z,21.59
2022-09-13T09:18:10.555Z,21.50
2022-09-13T09:21:00.144Z,21.30
2022-09-13T09:23:54.863Z,21.29
2022-09-13T09:26:41.246Z,21.33
2022-09-13T09:29:32.778Z,21.55
2022-09-13T09:32:50.852Z,21.48
2022-09-13T09:35:59.172Z,21.21
2022-09-13T09:38:46.026Z,20.96
2022-09-13T09:41:35.128Z,20.86
2022-09-13T09:44:25.962Z,20.92
2022-09-13T09:47:28.535Z,20.93
2022-09-13T09:50:24.082Z,20.99
2022-09-13T09:53:27.750Z,21.26
2022-09-13T09:56:26.261Z,21.33
2022-09-13T09:59:26.754Z,21.51
2022-09-13T10:02:21.896Z,21.70
2022-09-13T10:05:08.667Z,21.69
2022-09-13T10:07:58.486Z,22.15
2022-09-13T10:10:53.837Z,22.16
2022-09-13T10:13:58.684Z,22.17
2022-09-13T10:16:45.666Z,22.42
2022-09-13T10:19:33.260Z,22.43
2022-09-13T10:22:20.056Z,22.70
2022-09-13T10:25:24.085Z,22.86
2022-09-13T10:28:19.483Z,23.07
2022-09-13T10:31:12.846Z,23.54
2022-09-13T10:34:07.751Z,23.56
2022-09-13T10:37:05.879Z,23.55
2022-09-13T10:40:05.163Z,23.54
2022-09-13T10:43:03.827Z,23.59
2022-09-13T10:45:51.622Z,23.77
2022-09-13T10:48:47.239Z,24.23
2022-09-13T10:51:38.454Z,24.20
2022-09-13T10:54:24.825Z,24.25
2022-09-13T10:57:34.764Z,24.56
2022-09-13T11:00:34.620Z,24.79
2022-09-13T11:03:33.050Z,25.05
2022-09-13T11:06:47.681Z,25.47
2022-09-13T11:09:38.389Z,25.58
2022-09-13T11:12:39.355Z,25.58
2022-09-13T11:16:00.410Z,25.34
2022-09-13T11:18:55.728Z,25.54
2022-09-13T11:22:20.906Z,25.75
2022-09-13T11:25:31.415Z,25.71
2022-09-13T11:28:46.171Z,25.63
2022-09-13T11:31:58.943Z,25.49
2022-09-13T11:35:07.027Z,25.35
2022-09-13T11:38:01.151Z,25.35
2022-09-13T11:41:00.158Z,25.63
2022-09-13T11:44:09.642Z,25.59
2022-09-13T11:46:58.623Z,25.62
2022-09-13T11:50:18.643Z,25.76
2022-09-13T11:53:31.342Z,25.98
2022-09-13T11:56:34.536Z,26.15
2022-09-13T11:59:52.947Z,26.26
2022-09-13T12:02:47.200Z,26.77
2022-09-13T12:05:49.241Z,26.73
2022-09-13T12:08:42.537Z,26.94
2022-09-13T12:11:32.679Z,27.12
2022-09-13T12:14:23.597Z,26.57
2022-09-13T12:17:22.699Z,26.43
2022-09-13T12:20:32.214Z,26.63
2022-09-13T12:23:42.728Z,26.87
2022-09-13T12:26:53.930Z,26.69
2022-09-13T12:29:44.217Z,26.99
2022-09-13T12:32:31.292Z,26.99
2022-09-13T12:35:41.329Z,27.11
2022-09-13T12:39:09.119Z,27.37
2022-09-13T12:41:55.714Z,27.42
2022-09-13T12:45:16.589Z,27.37
2022-09-13T12:48:31.211Z,26.92
2022-09-13T12:51:26.616Z,26.97
2022-09-13T12:54:31.565Z,26.90
2022-09-13T12:57:53.409Z,26.79
2022-09-13T13:01:02.615Z,26.47
2022-09-13T13:04:03.237Z,26.63
2022-09-13T13:07:05.090Z,26.66
2022-09-13T13:09:54.654Z,26.20
2022-09-13T13:12:41.319Z,26.45
2022-09-13T13:15:27.402Z,26.34
2022-09-13T13:18:48.982Z,26.37
2022-09-13T13:21:38.996Z,26.48
2022-09-13T13:24:28.139Z,26.59
2022-09-13T13:27:35.837Z,26.79
2022-09-13T13:30:50.543Z,26.84
2022-09-13T13:34:11.069Z,27.40
2022-09-13T13:37:31.667Z,27.31
2022-09-13T13:40:25.654Z,27.06
2022-09-13T13:43:33.652Z,26.87
2022-09-13T13:46:24.678Z,26.74
2022-09-13T13:49:33.623Z,26.63
2022-09-13T13:52:23.004Z,26.26
2022-09-13T13:55:28.654Z,26.24
2022-09-13T13:58:34.743Z,26.35
2022-09-13T14:01:28.022Z,26.26
2022-09-13T14:04:51.554Z,26.32
2022-09-13T14:07:47.085Z,26.18
2022-09-13T14:10:52.385Z,26.07
2022-09-13T14:14:00.507Z,26.29
2022-09-13T14:17:18.060Z,26.44
2022-09-13T14:20:10.698Z,26.53
2022-09-13T14:23:18.663Z,26.56
2022-09-13T14:26:06.096Z,26.73
2022-09-13T14:28:52.553Z,26.77
2022-09-13T14:31:39.089Z,26.91
2022-09-13T14:34:35.295Z,27.07
2022-09-13T14:37:27.051Z,27.08
2022-09-13T14:40:22.440Z,27.14
2022-09-13T14:43:20.581Z,26.79
2022-09-13T14:46:25.704Z,26.96
2022-09-13T14:49:24.118Z,27.06
2022-09-13T14:52:20.413Z,27.11
2022-09-13T14:55:14.180Z,26.95
2022-09-13T14:58:15.835Z,27.04
2022-09-13T15:01:08.679Z,27.26
2022-09-13T15:03:58.043Z,26.97
2022-09-13T15:06:44.725Z,26.87
2022-09-13T15:09:30.921Z,26.66
2022-09-13T15:12:25.991Z,26.56
2022-09-13T15:15:26.435Z,26.41
2022-09-13T15:18:15.933Z,26.52
2022-09-13T15:21:05.123Z,26.24
2022-09-13T15:23:51.509Z,26.05
2022-09-13T15:26:37.840Z,26.15
2022-09-13T15:29:24.436Z,25.99
2022-09-13T15:32:22.914Z,25.91
2022-09-13T15:35:21.970Z,25.78
2022-09-13T15:38:24.399Z,25.92
2022-09-13T15:41:10.806Z,26.02
2022-09-13T15:43:58.744Z,25.89
2022-09-13T15:46:54.510Z,25.73
2022-09-13T15:49:46.608Z,25.68
2022-09-13T15:52:33.097Z,25.35
2022-09-13T15:55:19.910Z,25.42
2022-09-13T15:58:06.151Z,25.16
2022-09-13T16:00:52.649Z,25.20
2022-09-13T16:03:39.075Z,25.13
2022-09-13T16:06:28.922Z,25.10
2022-09-13T16:09:18.197Z,24.98
2022-09-13T16:12:05.131Z,24.84
2022-09-13T16:14:51.520Z,24.62
2022-09-13T16:17:38.049Z,24.41
2022-09-13T16:20:24.426Z,24.36
2022-09-13T16:23:11.613Z,24.28
2022-09-13T16:25:59.775Z,24.10
2022-09-13T16:28:46.096Z,23.81
2022-09-13T16:31:32.635Z,23.64
2022-09-13T16:34:19.023Z,23.53
2022-09-13T16:37:05.716Z,23.48
2022-09-13T16:39:52.298Z,23.34
2022-09-13T16:42:39.243Z,23.17
2022-09-13T16:45:25.764Z,23.21
2022-09-13T16:48:12.268Z,22.93
2022-09-13T16:51:09.935Z,22.93
2022-09-13T16:53:56.465Z,22.82
2022-09-13T16:56:43.102Z,22.61
2022-09-13T16:59:30.486Z,22.65
2022-09-13T17:02:16.818Z,22.51
2022-09-13T17:05:05.311Z,22.64
2022-09-13T17:07:52.465Z,22.78
2022-09-13T17:10:38.705Z,22.59
2022-09-13T17:13:25.199Z,22.47
2022-09-13T17:16:20.135Z,22.32
2022-09-13T17:19:11.126Z,22.39
2022-09-13T17:21:57.909Z,22.45
2022-09-13T17:24:44.794Z,22.36
2022-09-13T17:27:31.249Z,22.19
2022-09-13T17:30:17.897Z,22.01
2022-09-13T17:33:05.883Z,21.95
2022-09-13T17:36:03.206Z,21.86
2022-09-13T17:38:49.553Z,21.76
2022-09-13T17:41:36.319Z,21.67
2022-09-13T17:44:22.550Z,21.34
2022-09-13T17:47:09.039Z,21.35
2022-09-13T17:49:55.949Z,21.23
2022-09-13T17:52:42.218Z,21.10
2022-09-13T17:55:28.859Z,20.92
2022-09-13T17:58:15.589Z,20.96
2022-09-13T18:01:03.169Z,20.80
2022-09-13T18:03:50.151Z,20.87
2022-09-13T18:06:38.417Z,20.73
2022-09-13T18:09:24.945Z,20.72
2022-09-13T18:12:12.107Z,20.74
2022-09-13T18:14:58.619Z,20.72
2022-09-13T18:17:45.267Z,20.50
2022-09-13T18:20:31.710Z,20.48
2022-09-13T18:23:18.342Z,20.45
2022-09-13T18:26:10.602Z,20.31
2022-09-13T18:29:01.811Z,20.24
2022-09-13T18:31:48.223Z,20.13
2022-09-13T18:34:34.400Z,20.02
2022-09-13T18:37:20.542Z,19.82
2022-09-13T18:40:13.847Z,19.74
2022-09-13T18:43:00.087Z,19.79
2022-09-13T18:45:54.290Z,19.76
2022-09-13T18:48:45.942Z,19.73
2022-09-13T18:51:35.577Z,19.56
2022-09-13T18:54:21.886Z,19.66
2022-09-13T18:57:08.439Z,19.55
2022-09-13T18:59:54.839Z,19.42
2022-09-13T19:03:02.204Z,19.45
2022-09-13T19:05:48.158Z,19.32
2022-09-13T19:08:34.470Z,19.25
2022-09-13T19:11:44.708Z,19.21
2022-09-13T19:14:30.081Z,19.06
2022-09-13T19:17:16.710Z,18.98
2022-09-13T19:20:04.315Z,18.83
2022-09-13T19:22:52.276Z,18.74
2022-09-13T19:25:38.521Z,18.67
2022-09-13T19:28:24.742Z,18.66
2022-09-13T19:31:12.376Z,18.72
2022-09-13T19:33:58.872Z,18.63
2022-09-13T19:36:45.862Z,18.80
2022-09-13T19:39:32.317Z,18.77
2022-09-13T19:42:18.864Z,18.76
2022-09-13T19:45:05.905Z,18.66
2022-09-13T19:48:34.812Z,18.68
2022-09-13T19:51:05.328Z,18.66
2022-09-13T19:53:57.278Z,18.71
2022-09-13T19:56:44.680Z,18.59
2022-09-13T19:59:34.195Z,18.68
2022-09-13T20:02:20.727Z,18.54
2022-09-13T20:05:07.025Z,18.46
2022-09-13T20:07:53.880Z,18.58
2022-09-13T20:10:40.324Z,18.52
2022-09-13T20:13:26.810Z,18.57
2022-09-13T20:16:18.148Z,18.52
2022-09-13T20:19:18.390Z,18.41
2022-09-13T20:22:11.688Z,18.29
2022-09-13T20:24:58.059Z,18.49
2022-09-13T20:27:44.273Z,18.44
2022-09-13T20:30:30.580Z,18.22
2022-09-13T20:33:17.155Z,18.18
2022-09-13T20:36:05.292Z,18.29
2022-09-13T20:38:53.401Z,18.23
2022-09-13T20:41:39.631Z,18.04
2022-09-13T20:44:26.072Z,18.09
2022-09-13T20:47:13.376Z,18.03
2022-09-13T20:49:59.605Z,17.87
2022-09-13T20:52:47.152Z,17.89
2022-09-13T20:55:34.146Z,17.85
2022-09-13T20:58:22.035Z,17.88
2022-09-13T21:01:14.347Z,17.80
2022-09-13T21:04:01.317Z,17.77
2022-09-13T21:07:08.897Z,17.84
2022-09-13T21:09:59.605Z,17.93
2022-09-13T21:12:51.134Z,17.93
2022-09-13T21:15:38.533Z,17.70
2022-09-13T21:18:24.954Z,17.74
2022-09-13T21:21:18.086Z,17.95
2022-09-13T21:24:08.613Z,17.92
2022-09-13T21:26:57.275Z,17.57
2022-09-13T21:29:43.852Z,17.77
2022-09-13T21:32:30.327Z,17.62
2022-09-13T21:35:16.907Z,17.69
2022-09-13T21:38:03.194Z,17.72
2022-09-13T21:40:57.970Z,17.77
2022-09-13T21:43:45.227Z,17.76
2022-09-13T21:46:34.179Z,17.71
2022-09-13T21:49:20.639Z,17.80
2022-09-13T21:52:06.699Z,17.63
2022-09-13T21:54:53.171Z,17.73
2022-09-13T21:57:39.626Z,17.52
2022-09-13T22:00:26.002Z,17.68
2022-09-13T22:03:12.682Z,17.69
2022-09-13T22:05:59.125Z,17.71
2022-09-13T22:08:47.957Z,17.78
2022-09-13T22:11:38.619Z,17.76
2022-09-13T22:14:25.187Z,17.71
2022-09-13T22:17:11.539Z,17.59
2022-09-13T22:19:57.945Z,17.57
2022-09-13T22:22:44.870Z,17.47
2022-09-13T22:25:32.017Z,17.71
2022-09-13T22:28:18.213Z,17.55
2022-09-13T22:31:13.548Z,17.42
2022-09-13T22:34:01.280Z,17.48
2022-09-13T22:36:47.963Z,17.43
2022-09-13T22:39:34.194Z,17.51
2022-09-13T22:42:20.919Z,17.44
2022-09-13T22:45:09.063Z,17.37
2022-09-13T22:47:55.193Z,17.34
2022-09-13T22:50:41.638Z,17.33
2022-09-13T22:53:28.288Z,17.41
2022-09-13T22:56:16.141Z,17.56
2022-09-13T22:59:14.583Z,17.35
2022-09-13T23:02:01.049Z,17.54
2022-09-13T23:04:47.119Z,17.47
2022-09-13T23:07:33.527Z,17.43
2022-09-13T23:10:20.034Z,17.39
2022-09-13T23:13:06.078Z,17.39
2022-09-13T23:15:52.545Z,17.28
2022-09-13T23:18:39.036Z,17.40
2022-09-13T23:21:32.831Z,17.23
2022-09-13T23:24:19.989Z,17.38
2022-09-13T23:27:07.362Z,17.25
2022-09-13T23:29:53.597Z,17.30
2022-09-13T23:32:40.022Z,17.32
2022-09-13T23:35:26.373Z,17.23
2022-09-13T23:38:12.863Z,17.35
2022-09-13T23:40:59.454Z,17.22
2022-09-13T23:43:46.803Z,17.29
2022-09-13T23:46:33.428Z,17.05
2022-09-13T23:49:19.729Z,17.05
2022-09-13T23:52:05.946Z,17.03
2022-09-13T23:54:52.411Z,17.02
2022-09-13T23:57:38.866Z,17.09
